Portada
METAR-TAF:

METAR-TAF

Aeroports :

El Oued, Algèria

latitud: 33-30-47N, longitud: 006-46-57E, altitud: 62 m

Observació

L'informe es va fer fa 36 minuts, a les 09:00 UTC
Vent 2 kt del Sud/Sud-Oest
Temperatura 15°C
Humitat 59%
Pressió 1027 hPa
Visibilitat: 8000 m

METAR: DAUO 210900Z 21002KT 8000 NSC 15/07 Q1027

Hora: 10:36 (09:36 UTC)

Pronòstic

L'informe es va fer fa 1 hora i 36 minuts, a les 08:00 UTC
Pronòstic vàlid del 21 a les 09 UTC al 21 a les 18 UTC
Vent 2 kt amb direcció variable
Visibilitat: 8000 m

TAF: DAUO 210800Z 2109/2118 VRB02KT 8000 NSC

Observacions i pronòstics meteorològics de més de 4000 aeroports (METAR i TAF).

Les estacions disponibles són els punts grocs i vermells al mapa.

Posi el ratolí al punt desitjat per veure el nom de l'estació.

Feu clic per veure les observacions i els pronòstics meteorològics.

Per canviar el mapa: feu clic els botons verds amb una creu de color negre per apropar; al botó verd amb un guió per allunyar la imatge; o en les fletxes verdes per a mapes adjacents.


METAR-TAF: